Aviation Digital Data Service (ADDS)

Output produced by METARs form (1706 UTC 31 October 2014)
found at http://aviationweather.gov/adds/metars/
 
KPOU 311249Z 3113/0112 VRB02KT P6SM SCT003 
     TEMPO 3113/3114 BKN003 
     FM311400 VRB03KT P6SM SCT050 
     FM311700 06004KT P6SM OVC050 
     FM010200 02004KT P6SM OVC040 
     FM011000 02007KT P6SM OVC030